Time;durP1;ratioP1;P1;durP2;ratioP2;P2;SDS_P1;SDS_P2;PMS_P1;PMS_P2;Temp;Humidity;BMP_temperature;BMP_pressure;BME280_temperature;BME280_humidity;BME280_pressure;Samples;Min_cycle;Max_cycle;Signal;HPM_P1;HPM_P2
2023/08/24 00:00:28;;;;;;;4.97;1.92;;;;;;;20.05;72.30;101949.66;7390277;19;20021;-68
2023/08/24 00:02:55;;;;;;;4.85;1.75;;;;;;;20.03;72.38;101949.78;7392548;19;20022;-68
2023/08/24 00:05:23;;;;;;;8.57;2.03;;;;;;;20.11;71.71;101958.00;7391597;19;20038;-68
2023/08/24 00:07:52;;;;;;;5.15;1.95;;;;;;;20.22;71.13;101954.25;7390859;19;20014;-68
2023/08/24 00:10:20;;;;;;;5.32;1.88;;;;;;;20.24;71.27;101956.81;7390037;19;20022;-67
2023/08/24 00:12:47;;;;;;;7.10;2.20;;;;;;;20.25;71.44;101953.13;7390631;19;20034;-67
2023/08/24 00:15:15;;;;;;;5.68;2.10;;;;;;;20.24;71.61;101948.75;7392534;19;20487;-66
2023/08/24 00:17:42;;;;;;;5.00;1.90;;;;;;;20.21;71.38;101953.41;7390350;19;20014;-66
2023/08/24 00:20:10;;;;;;;7.25;2.08;;;;;;;20.13;71.96;101953.31;7391948;19;20041;-66
2023/08/24 00:22:39;;;;;;;8.20;2.10;;;;;;;20.12;71.70;101953.47;7391709;19;20022;-66
2023/08/24 00:25:08;;;;;;;6.55;2.25;;;;;;;20.11;71.46;101949.94;7391965;19;20024;-66
2023/08/24 00:27:35;;;;;;;6.53;2.13;;;;;;;20.16;71.53;101952.16;7391865;19;20483;-66
2023/08/24 00:30:06;;;;;;;7.15;1.80;;;;;;;20.03;71.98;101955.16;7391212;19;20086;-66
2023/08/24 00:32:34;;;;;;;6.13;1.73;;;;;;;20.04;71.89;101953.34;7390343;19;20026;-66
2023/08/24 00:35:03;;;;;;;5.28;2.05;;;;;;;20.04;71.84;101948.81;7390378;19;20025;-66
2023/08/24 00:37:31;;;;;;;4.68;1.77;;;;;;;19.96;72.13;101946.00;7391352;19;20042;-66
2023/08/24 00:40:08;;;;;;;7.88;2.30;;;;;;;19.94;72.10;101954.19;7391009;19;20022;-66
2023/08/24 00:42:39;;;;;;;6.97;2.40;;;;;;;19.90;72.22;101942.03;7391348;19;20042;-66
2023/08/24 00:45:09;;;;;;;5.88;2.22;;;;;;;19.90;72.41;101946.56;7392608;19;20015;-66
2023/08/24 00:47:39;;;;;;;4.18;1.90;;;;;;;19.91;72.73;101945.56;7391891;19;20022;-66
2023/08/24 00:50:08;;;;;;;7.15;2.00;;;;;;;19.95;72.47;101945.13;7391947;19;20011;-66
2023/08/24 00:52:41;;;;;;;4.55;1.80;;;;;;;19.96;72.49;101946.00;7391176;19;20025;-66
2023/08/24 00:55:09;;;;;;;;;;;;;;;19.77;73.12;101946.03;7391951;19;20021;-66
2023/08/24 00:57:38;;;;;;;5.30;2.00;;;;;;;19.69;73.23;101944.91;7390829;19;19922;-66
2023/08/24 01:00:10;;;;;;;4.30;2.05;;;;;;;19.76;72.97;101953.22;7389906;19;20518;-67
2023/08/24 01:02:38;;;;;;;4.25;1.92;;;;;;;19.74;73.05;101952.53;7389364;19;20487;-67
2023/08/24 01:05:06;;;;;;;4.47;1.90;;;;;;;19.79;72.63;101949.41;7391124;19;20082;-66
2023/08/24 01:07:36;;;;;;;4.78;1.70;;;;;;;19.81;72.76;101950.97;7391297;19;20015;-66
2023/08/24 01:10:06;;;;;;;6.53;2.10;;;;;;;19.72;72.97;101955.34;7389032;19;20022;-66
2023/08/24 01:12:44;;;;;;;6.32;2.20;;;;;;;19.74;72.82;101946.31;7390759;19;20022;-67
2023/08/24 01:15:32;;;;;;;8.32;2.58;;;;;;;19.60;73.13;101940.34;7390536;19;20354;-67
2023/08/24 01:18:05;;;;;;;6.07;2.60;;;;;;;19.59;73.18;101948.56;7390004;19;20032;-67
2023/08/24 01:20:34;;;;;;;7.57;2.40;;;;;;;19.57;72.95;101946.00;7389769;19;20139;-67
2023/08/24 01:23:41;;;;;;;5.70;2.63;;;;;;;19.68;72.83;101943.19;7389100;19;20014;-67
2023/08/24 01:26:20;;;;;;;8.15;2.72;;;;;;;19.53;73.00;101944.59;7396610;19;20027;-67
2023/08/24 01:28:48;;;;;;;6.35;2.45;;;;;;;19.42;73.58;101947.41;7396535;19;20014;-67
2023/08/24 01:31:16;;;;;;;5.47;2.15;;;;;;;19.52;73.51;101942.91;7395660;19;20042;-67
2023/08/24 01:33:45;;;;;;;10.85;2.40;;;;;;;19.55;73.08;101936.41;7397579;19;20018;-67
2023/08/24 01:36:16;;;;;;;5.75;2.28;;;;;;;19.52;73.34;101940.22;7396046;19;20014;-67
2023/08/24 01:38:50;;;;;;;6.15;2.80;;;;;;;19.52;73.17;101939.38;7396219;19;20081;-67
2023/08/24 01:41:20;;;;;;;;;;;;;;;19.14;74.54;101947.28;7394933;19;20098;-67
2023/08/24 01:43:52;;;;;;;8.05;3.10;;;;;;;19.18;74.59;101940.63;7395511;19;19919;-67
2023/08/24 01:46:22;;;;;;;6.20;2.90;;;;;;;19.40;74.14;101935.97;7397207;19;20015;-68
2023/08/24 01:48:51;;;;;;;6.82;2.72;;;;;;;19.41;73.59;101935.84;7397397;19;20042;-67
2023/08/24 01:51:19;;;;;;;6.65;3.08;;;;;;;19.39;73.46;101934.31;7399946;19;20015;-67
2023/08/24 01:53:47;;;;;;;7.90;3.03;;;;;;;19.36;73.52;101929.19;7396675;19;20090;-67
2023/08/24 01:56:16;;;;;;;8.73;3.00;;;;;;;19.31;73.75;101939.50;7398907;19;20007;-67
2023/08/24 01:58:43;;;;;;;6.88;2.83;;;;;;;19.17;74.01;101938.94;7397078;19;20014;-67
2023/08/24 02:01:12;;;;;;;8.52;3.05;;;;;;;18.88;74.96;101936.22;7397678;19;20022;-67
2023/08/24 02:03:40;;;;;;;6.32;2.90;;;;;;;18.90;75.28;101930.72;7400145;19;20018;-67
2023/08/24 02:06:08;;;;;;;8.00;3.28;;;;;;;18.83;75.34;101932.25;7400243;19;20038;-67
2023/08/24 02:08:35;;;;;;;8.50;3.20;;;;;;;18.76;75.35;101931.94;7397073;19;20018;-67
2023/08/24 02:11:03;;;;;;;7.18;3.40;;;;;;;18.82;74.87;101919.81;7398939;19;20014;-67
2023/08/24 02:13:30;;;;;;;8.30;3.25;;;;;;;18.91;74.82;101925.19;7401351;19;20018;-67
2023/08/24 02:16:05;;;;;;;7.43;3.25;;;;;;;19.11;74.13;101918.00;7398931;19;20014;-67
2023/08/24 02:18:33;;;;;;;6.28;2.65;;;;;;;19.13;73.93;101915.19;7394845;19;20018;-67
2023/08/24 02:21:07;;;;;;;10.30;3.05;;;;;;;19.14;74.08;101917.72;7394368;19;20034;-67
2023/08/24 02:23:35;;;;;;;7.10;2.90;;;;;;;19.12;73.88;101914.34;7395675;19;20018;-67
2023/08/24 02:26:03;;;;;;;5.40;2.58;;;;;;;19.08;74.00;101907.56;7391985;19;20031;-63
2023/08/24 02:28:30;;;;;;;9.98;4.07;;;;;;;19.01;74.37;101911.81;7395643;19;20090;-63
2023/08/24 02:31:02;;;;;;;7.55;3.50;;;;;;;18.74;75.38;101916.00;7394058;19;20420;-64
2023/08/24 02:33:30;;;;;;;7.63;4.20;;;;;;;18.77;75.59;101917.53;7395064;19;20018;-64
2023/08/24 02:35:58;;;;;;;8.32;3.60;;;;;;;18.98;74.88;101914.75;7391771;19;20361;-64
2023/08/24 02:38:25;;;;;;;7.13;3.53;;;;;;;19.02;74.57;101904.59;7395546;19;20022;-64
2023/08/24 02:41:03;;;;;;;7.15;3.78;;;;;;;19.10;74.22;101904.72;7394134;19;20540;-65
2023/08/24 02:43:32;;;;;;;6.05;3.50;;;;;;;19.00;74.24;101907.41;7391823;19;20051;-64
2023/08/24 02:46:01;;;;;;;9.15;3.40;;;;;;;18.99;74.64;101909.22;7395075;19;20085;-64
2023/08/24 02:48:30;;;;;;;6.55;3.28;;;;;;;18.98;74.31;101906.69;7395149;19;20368;-64
2023/08/24 02:50:58;;;;;;;5.60;3.20;;;;;;;18.97;74.47;101900.50;7397162;19;20026;-64
2023/08/24 02:53:26;;;;;;;5.30;2.88;;;;;;;18.97;74.48;101903.19;7394737;19;20019;-64
2023/08/24 02:55:55;;;;;;;6.13;2.83;;;;;;;18.92;74.53;101896.50;7395352;19;20032;-64
2023/08/24 02:58:23;;;;;;;6.70;3.20;;;;;;;18.88;74.62;101892.41;7394406;19;20022;-64
2023/08/24 03:00:50;;;;;;;5.40;3.22;;;;;;;18.97;74.24;101891.59;7391769;19;20014;-64
2023/08/24 03:03:17;;;;;;;6.85;3.30;;;;;;;18.98;74.07;101891.44;7394342;19;20371;-64
2023/08/24 03:06:06;;;;;;;4.78;2.90;;;;;;;19.01;74.12;101874.22;7394723;19;20024;-64
2023/08/24 03:08:34;;;;;;;6.22;3.17;;;;;;;18.92;74.55;101875.88;7393600;19;20357;-64
2023/08/24 03:11:02;;;;;;;8.38;3.53;;;;;;;18.92;74.13;101869.66;7391621;19;20088;-64
2023/08/24 03:13:30;;;;;;;9.57;3.97;;;;;;;18.98;74.49;101869.97;7393646;19;20022;-64
2023/08/24 03:16:03;;;;;;;9.23;4.20;;;;;;;19.04;73.92;101868.56;7394062;19;20042;-65
2023/08/24 03:18:31;;;;;;;8.88;4.18;;;;;;;18.96;74.58;101866.59;7393091;19;20023;-65
2023/08/24 03:20:59;;;;;;;8.25;4.47;;;;;;;18.97;74.56;101870.97;7393220;19;20014;-65
2023/08/24 03:23:26;;;;;;;9.50;5.07;;;;;;;18.98;74.30;101866.44;7393500;19;20014;-65
2023/08/24 03:25:55;;;;;;;8.05;4.40;;;;;;;18.99;74.39;101866.28;7393860;19;20021;-64
2023/08/24 03:28:22;;;;;;;8.10;4.95;;;;;;;18.96;74.69;101866.59;7394199;19;20032;-65
2023/08/24 03:30:52;;;;;;;9.77;5.30;;;;;;;18.97;74.61;101862.91;7392753;19;20092;-64
2023/08/24 03:33:19;;;;;;;9.80;4.97;;;;;;;18.91;74.78;101860.78;7392086;19;20022;-64
2023/08/24 03:35:47;;;;;;;9.50;5.00;;;;;;;18.93;74.89;101861.50;7393687;19;20014;-64
2023/08/24 03:38:15;;;;;;;9.95;4.90;;;;;;;18.92;74.74;101859.78;7393061;19;20039;-64
2023/08/24 03:40:42;;;;;;;9.75;5.65;;;;;;;18.96;74.72;101869.28;7391717;19;20772;-64
2023/08/24 03:43:10;;;;;;;7.50;4.95;;;;;;;18.88;75.13;101879.00;7390805;19;20023;-64
2023/08/24 03:45:38;;;;;;;8.57;5.45;;;;;;;18.74;75.15;101881.09;7392288;19;20123;-65
2023/08/24 03:48:08;;;;;;;7.95;5.05;;;;;;;18.73;75.61;101890.16;7393701;19;20480;-65
2023/08/24 03:50:35;;;;;;;10.93;5.43;;;;;;;18.86;75.07;101886.34;7392121;19;20023;-65
2023/08/24 03:53:03;;;;;;;9.18;5.70;;;;;;;18.86;75.08;101891.72;7393086;19;20082;-64
2023/08/24 03:55:32;;;;;;;10.15;6.07;;;;;;;18.62;76.14;101894.72;7393351;19;20028;-64
2023/08/24 03:58:00;;;;;;;10.57;5.97;;;;;;;18.40;76.80;101898.50;7393315;19;20112;-64
2023/08/24 04:00:28;;;;;;;11.68;5.80;;;;;;;18.55;76.74;101904.34;7391131;19;20041;-64
2023/08/24 04:02:55;;;;;;;10.07;4.93;;;;;;;18.77;75.61;101889.84;7393626;19;20360;-64
2023/08/24 04:05:23;;;;;;;10.10;5.63;;;;;;;18.84;75.30;101899.03;7393455;19;20398;-64
2023/08/24 04:07:52;;;;;;;9.73;5.22;;;;;;;18.89;74.99;101891.44;7394061;19;20011;-64
2023/08/24 04:10:19;;;;;;;10.60;6.30;;;;;;;18.66;75.74;101899.72;7393592;19;20424;-66
2023/08/24 04:12:47;;;;;;;10.73;5.00;;;;;;;18.55;76.31;101902.50;7396619;19;20026;-63
2023/08/24 04:15:14;;;;;;;10.63;5.50;;;;;;;18.46;76.69;101890.72;7393941;19;20015;-63
2023/08/24 04:17:42;;;;;;;10.45;6.22;;;;;;;18.49;76.46;101889.63;7394594;19;20065;-63
2023/08/24 04:20:11;;;;;;;11.20;6.60;;;;;;;18.60;76.02;101884.16;7389965;19;20018;-64
2023/08/24 04:22:39;;;;;;;10.07;6.10;;;;;;;18.47;76.68;101886.25;7391699;19;20014;-64
2023/08/24 04:25:06;;;;;;;10.98;5.25;;;;;;;18.36;76.93;101895.22;7392895;19;20014;-64
2023/08/24 04:27:34;;;;;;;10.02;5.70;;;;;;;18.31;77.47;101901.97;7392528;19;20522;-64
2023/08/24 04:30:03;;;;;;;10.70;6.65;;;;;;;18.36;77.29;101900.59;7392005;19;20036;-65
2023/08/24 04:34:26;;;;;;;10.95;7.03;;;;;;;18.19;77.72;101901.22;7425674;19;20330;-64
2023/08/24 04:36:54;;;;;;;10.65;5.45;;;;;;;18.42;77.05;101917.97;7428305;19;20090;-64
2023/08/24 04:39:22;;;;;;;10.48;6.00;;;;;;;18.63;76.37;101908.03;7428635;19;20508;-64
2023/08/24 04:41:49;;;;;;;10.35;5.88;;;;;;;18.62;76.40;101906.34;7427463;19;20006;-64
2023/08/24 04:44:16;;;;;;;9.85;5.30;;;;;;;18.69;76.01;101899.41;7428375;19;20015;-64
2023/08/24 04:46:44;;;;;;;8.68;5.43;;;;;;;18.73;75.63;101890.16;7427285;19;20022;-64
2023/08/24 04:49:11;;;;;;;9.85;5.88;;;;;;;18.69;75.58;101888.66;7428008;19;20375;-65
2023/08/24 04:51:38;;;;;;;10.40;5.72;;;;;;;18.72;76.01;101883.06;7424566;19;20042;-64
2023/08/24 04:54:06;;;;;;;11.73;5.95;;;;;;;18.83;75.28;101890.16;7424678;19;20027;-64
2023/08/24 04:56:34;;;;;;;9.85;5.72;;;;;;;18.81;75.58;101883.22;7431709;19;20038;-65
2023/08/24 04:59:02;;;;;;;9.50;5.78;;;;;;;18.80;75.48;101881.53;7426286;19;20018;-65
2023/08/24 05:01:32;;;;;;;11.13;5.60;;;;;;;18.83;75.63;101884.78;7423577;19;20022;-64
2023/08/24 05:04:00;;;;;;;11.60;5.32;;;;;;;18.89;75.37;101884.25;7425293;19;20010;-64
2023/08/24 05:06:29;;;;;;;8.82;5.40;;;;;;;18.84;75.10;101886.47;7425077;19;20078;-64
2023/08/24 05:08:56;;;;;;;10.35;5.35;;;;;;;18.89;75.31;101886.91;7426479;19;20025;-64
2023/08/24 05:11:26;;;;;;;9.73;5.15;;;;;;;18.91;75.26;101890.31;7425300;19;20028;-64
2023/08/24 05:13:54;;;;;;;10.00;5.63;;;;;;;18.93;75.26;101898.22;7426019;19;20022;-65
2023/08/24 05:16:21;;;;;;;10.13;5.22;;;;;;;18.94;75.33;101899.91;7427207;19;20092;-65
2023/08/24 05:18:49;;;;;;;10.77;6.30;;;;;;;18.89;75.47;101903.03;7425727;19;20046;-65
2023/08/24 05:21:16;;;;;;;9.70;5.57;;;;;;;18.96;74.88;101901.50;7424801;19;20030;-65
2023/08/24 05:23:44;;;;;;;10.27;5.85;;;;;;;19.05;75.05;101907.00;7426180;19;20018;-65
2023/08/24 05:26:11;;;;;;;9.80;5.60;;;;;;;19.05;74.88;101909.69;7426569;19;20496;-65
2023/08/24 05:28:39;;;;;;;9.20;5.43;;;;;;;19.05;74.68;101902.47;7426369;19;20014;-65
2023/08/24 05:31:06;;;;;;;8.95;5.55;;;;;;;19.05;75.06;101902.47;7424074;19;20117;-64
2023/08/24 05:33:34;;;;;;;9.23;5.30;;;;;;;19.05;74.83;101905.16;7421134;19;20401;-66
2023/08/24 05:36:01;;;;;;;9.38;5.43;;;;;;;19.08;74.81;101902.19;7424710;19;20409;-66
2023/08/24 05:38:29;;;;;;;11.32;5.72;;;;;;;19.03;75.08;101893.69;7426007;19;20022;-66
2023/08/24 05:40:56;;;;;;;9.10;5.82;;;;;;;19.03;74.92;101887.47;7424561;19;20033;-65
2023/08/24 05:43:24;;;;;;;10.15;5.53;;;;;;;19.05;74.83;101889.06;7425805;19;20078;-65
2023/08/24 05:45:52;;;;;;;12.68;5.70;;;;;;;19.12;75.13;101884.81;7397249;19;20007;-65
2023/08/24 05:48:19;;;;;;;9.60;5.60;;;;;;;19.15;74.68;101881.81;7396799;19;20397;-65
2023/08/24 05:50:47;;;;;;;13.55;6.20;;;;;;;19.18;75.12;101886.06;7396185;19;20018;-65
2023/08/24 05:53:14;;;;;;;8.88;5.25;;;;;;;19.16;74.94;101891.59;7395659;19;20086;-65
2023/08/24 05:55:42;;;;;;;10.30;5.50;;;;;;;19.12;75.05;101887.50;7395228;19;20024;-65
2023/08/24 05:58:09;;;;;;;10.30;4.90;;;;;;;19.19;74.72;101883.28;7396778;19;20015;-65
2023/08/24 06:00:37;;;;;;;9.48;5.78;;;;;;;19.19;75.02;101883.28;7394049;19;20026;-65
2023/08/24 06:03:04;;;;;;;10.07;5.25;;;;;;;19.18;75.26;101883.38;7396081;19;20017;-65
2023/08/24 06:05:31;;;;;;;9.85;4.95;;;;;;;19.15;74.94;101870.25;7395507;19;20018;-65
2023/08/24 06:07:59;;;;;;;8.82;5.18;;;;;;;19.17;75.30;101873.66;7400649;19;20085;-65
2023/08/24 06:10:27;;;;;;;12.00;6.35;;;;;;;19.27;75.07;101877.19;7398557;19;20014;-65
2023/08/24 06:12:54;;;;;;;11.60;5.13;;;;;;;19.27;74.87;101873.63;7398468;19;20027;-65
2023/08/24 06:15:24;;;;;;;12.23;5.30;;;;;;;19.10;75.41;101881.41;7399725;19;20018;-65
2023/08/24 06:17:51;;;;;;;15.27;6.15;;;;;;;19.03;75.68;101869.53;7397393;19;20018;-65
2023/08/24 06:20:20;;;;;;;13.98;6.38;;;;;;;19.19;75.42;101874.34;7395626;19;20023;-65
2023/08/24 06:22:47;;;;;;;13.27;6.00;;;;;;;19.31;75.45;101864.28;7395992;19;20019;-65
2023/08/24 06:25:15;;;;;;;14.20;5.85;;;;;;;19.47;75.01;101881.53;7395663;19;20084;-65
2023/08/24 06:27:42;;;;;;;9.77;5.38;;;;;;;19.53;74.42;101869.34;7396006;19;20032;-65
2023/08/24 06:30:10;;;;;;;9.73;5.20;;;;;;;19.59;74.36;101865.25;7393525;19;20015;-65
2023/08/24 06:32:38;;;;;;;8.70;4.57;;;;;;;19.60;73.99;101856.19;7395061;19;20078;-66
2023/08/24 06:35:06;;;;;;;9.90;4.43;;;;;;;19.61;73.85;101858.75;7393787;19;20479;-66
2023/08/24 06:37:33;;;;;;;10.75;4.50;;;;;;;19.62;73.98;101854.25;7395490;19;20019;-64
2023/08/24 06:40:01;;;;;;;6.97;4.38;;;;;;;19.56;74.35;101850.25;7395083;19;20086;-63
2023/08/24 06:42:30;;;;;;;9.85;4.28;;;;;;;19.60;74.26;101857.03;7393712;19;20011;-64
2023/08/24 06:44:58;;;;;;;9.88;4.72;;;;;;;19.58;74.06;101845.59;7394421;19;20023;-63
2023/08/24 06:47:25;;;;;;;9.65;4.20;;;;;;;19.58;74.53;101845.59;7399400;19;20360;-64
2023/08/24 06:49:53;;;;;;;9.70;4.57;;;;;;;19.63;74.38;101846.03;7395457;19;20417;-65
2023/08/24 06:52:20;;;;;;;9.52;4.10;;;;;;;19.71;73.68;101848.84;7393929;19;20093;-66
2023/08/24 06:54:53;;;;;;;9.88;4.45;;;;;;;19.71;73.92;101861.44;7392551;19;20021;-66
2023/08/24 06:57:20;;;;;;;10.97;4.63;;;;;;;19.75;73.61;101852.09;7393967;19;20015;-66
2023/08/24 06:59:48;;;;;;;9.07;4.20;;;;;;;19.76;73.21;101847.56;7395579;19;20239;-65
2023/08/24 07:02:17;;;;;;;11.70;4.35;;;;;;;19.81;73.43;101843.44;7392442;19;20495;-68
2023/08/24 07:04:45;;;;;;;11.43;3.78;;;;;;;19.87;73.59;101844.69;7395506;19;20022;-64
2023/08/24 07:07:13;;;;;;;11.00;4.10;;;;;;;19.91;73.08;101835.34;7396090;19;20018;-64
2023/08/24 07:09:40;;;;;;;9.55;4.63;;;;;;;19.85;73.13;101839.47;7395763;19;20357;-64
2023/08/24 07:12:10;;;;;;;10.38;4.00;;;;;;;19.94;73.25;101833.19;7393259;19;20035;-63
2023/08/24 07:14:37;;;;;;;12.25;3.97;;;;;;;20.01;73.21;101824.56;7394670;19;20023;-62
2023/08/24 07:17:06;;;;;;;8.27;3.72;;;;;;;20.05;73.16;101829.47;7396693;19;20043;-63
2023/08/24 07:19:33;;;;;;;10.85;3.95;;;;;;;20.05;73.28;101828.63;7394698;19;20015;-64
2023/08/24 07:22:01;;;;;;;8.48;3.78;;;;;;;20.07;73.28;101815.88;7391962;19;20479;-63
2023/08/24 07:24:29;;;;;;;8.32;4.45;;;;;;;20.10;72.68;101811.03;7396063;19;20025;-63
2023/08/24 07:27:11;;;;;;;9.82;4.53;;;;;;;20.16;72.92;101806.91;7394381;19;20077;-65
2023/08/24 07:29:38;;;;;;;11.13;4.72;;;;;;;20.33;72.45;101816.00;7393717;19;20102;-65
2023/08/24 07:32:05;;;;;;;10.93;3.72;;;;;;;20.42;72.20;101815.97;7391397;19;20011;-65
2023/08/24 07:34:33;;;;;;;8.70;3.88;;;;;;;20.34;72.55;101813.19;7394481;19;20130;-65
2023/08/24 07:37:00;;;;;;;9.60;4.18;;;;;;;20.28;72.36;101821.84;7396040;19;20033;-65
2023/08/24 07:39:29;;;;;;;9.77;4.03;;;;;;;20.25;73.04;101810.53;7396159;19;20022;-65
2023/08/24 07:41:56;;;;;;;9.05;4.40;;;;;;;20.21;72.73;101802.78;7392347;19;20025;-63
2023/08/24 07:44:23;;;;;;;10.40;3.70;;;;;;;20.27;72.44;101804.03;7396028;19;20015;-64
2023/08/24 07:46:51;;;;;;;8.25;3.92;;;;;;;20.28;72.33;101794.94;7395908;19;20011;-63
2023/08/24 07:49:18;;;;;;;6.22;3.10;;;;;;;20.36;72.62;101791.50;7396491;19;20010;-61
2023/08/24 07:51:47;;;;;;;7.72;3.80;;;;;;;20.44;72.04;101787.03;7394998;19;20023;-63
2023/08/24 07:54:14;;;;;;;7.38;3.30;;;;;;;20.48;72.29;101781.38;7397330;19;20362;-63
2023/08/24 07:56:42;;;;;;;9.23;3.38;;;;;;;20.52;72.52;101786.31;7395169;19;20476;-61
2023/08/24 07:59:09;;;;;;;8.35;3.47;;;;;;;20.57;72.02;101783.19;7395192;19;20015;-64
2023/08/24 08:01:37;;;;;;;5.75;3.20;;;;;;;20.60;71.88;101791.78;7393471;19;20024;-66
2023/08/24 08:04:04;;;;;;;6.57;3.78;;;;;;;20.59;72.06;101786.56;7393859;19;20021;-64
2023/08/24 08:06:32;;;;;;;10.13;3.58;;;;;;;20.55;71.52;101775.25;7395294;19;20021;-64
2023/08/24 08:09:00;;;;;;;7.72;3.13;;;;;;;20.64;71.50;101771.66;7395272;19;20018;-60
2023/08/24 08:11:28;;;;;;;7.72;2.80;;;;;;;20.71;71.52;101769.16;7394474;19;20025;-61
2023/08/24 08:13:56;;;;;;;8.65;2.70;;;;;;;20.82;71.33;101768.09;7394950;19;20038;-61
2023/08/24 08:16:23;;;;;;;6.63;2.78;;;;;;;20.90;70.69;101773.53;7394334;19;20041;-64
2023/08/24 08:18:50;;;;;;;7.07;2.72;;;;;;;20.95;70.33;101768.56;7395604;19;20031;-63
2023/08/24 08:21:18;;;;;;;9.00;2.33;;;;;;;20.99;69.94;101771.78;7393557;19;20026;-65
2023/08/24 08:23:49;;;;;;;6.82;2.13;;;;;;;21.01;69.70;101769.75;7394899;19;20010;-65
2023/08/24 08:26:17;;;;;;;6.63;1.80;;;;;;;21.08;69.26;101771.69;7394713;19;20487;-66
2023/08/24 08:28:44;;;;;;;6.60;2.20;;;;;;;21.17;68.63;101773.41;7394715;19;20046;-66
2023/08/24 08:31:12;;;;;;;7.05;2.83;;;;;;;21.21;68.31;101773.94;7392916;19;20022;-64
2023/08/24 08:33:39;;;;;;;6.03;1.90;;;;;;;21.28;67.87;101779.56;7393472;19;20018;-63
2023/08/24 08:36:07;;;;;;;7.53;2.00;;;;;;;21.34;67.38;101778.97;7393816;19;20015;-65
2023/08/24 08:38:34;;;;;;;4.22;1.83;;;;;;;21.41;67.56;101782.72;7394346;19;20003;-63
2023/08/24 08:41:04;;;;;;;7.32;2.25;;;;;;;21.45;66.32;101775.16;7392890;19;20018;-64
2023/08/24 08:43:32;;;;;;;5.45;1.88;;;;;;;21.49;65.54;101780.06;7393515;19;20039;-64
2023/08/24 08:46:00;;;;;;;8.90;2.38;;;;;;;21.58;65.05;101772.88;7393788;19;20039;-63
2023/08/24 08:48:31;;;;;;;8.70;2.70;;;;;;;21.63;63.74;101782.16;7393986;19;20015;-63
2023/08/24 08:50:59;;;;;;;6.63;2.42;;;;;;;21.65;62.91;101782.84;7393252;19;20011;-64
2023/08/24 08:53:26;;;;;;;5.70;2.13;;;;;;;21.67;63.22;101782.69;7393768;19;20086;-64
2023/08/24 08:55:57;;;;;;;6.28;2.13;;;;;;;21.78;63.75;101786.97;7392318;19;20010;-60
2023/08/24 08:58:27;;;;;;;7.50;2.50;;;;;;;21.80;63.29;101787.66;7394253;19;20472;-61
2023/08/24 09:00:55;;;;;;;6.18;1.98;;;;;;;21.79;63.01;101773.34;7395156;19;20017;-61
2023/08/24 09:03:22;;;;;;;6.88;1.98;;;;;;;21.79;64.31;101767.94;7393354;19;20345;-61
2023/08/24 09:05:50;;;;;;;7.03;2.20;;;;;;;21.84;64.34;101773.69;7392216;19;20018;-63
2023/08/24 09:08:18;;;;;;;6.93;1.95;;;;;;;21.84;63.92;101770.13;7393539;19;20017;-63
2023/08/24 09:10:45;;;;;;;6.50;2.10;;;;;;;21.83;64.82;101766.59;7392902;19;20023;-62
2023/08/24 09:13:12;;;;;;;5.93;2.00;;;;;;;21.89;64.18;101765.09;7393277;19;20022;-63
2023/08/24 09:15:40;;;;;;;7.03;2.35;;;;;;;21.96;64.15;101766.13;7391088;19;20016;-63
2023/08/24 09:18:08;;;;;;;5.95;2.10;;;;;;;21.97;63.45;101748.94;7392396;19;20035;-64
2023/08/24 09:20:35;;;;;;;5.72;2.25;;;;;;;21.97;63.25;101735.44;7398948;19;20468;-63
2023/08/24 09:23:03;;;;;;;4.88;2.22;;;;;;;21.99;63.22;101738.84;7400651;19;20069;-64
2023/08/24 09:25:30;;;;;;;5.80;2.05;;;;;;;22.05;63.20;101742.72;7400881;19;20022;-64
2023/08/24 09:28:00;;;;;;;7.85;2.92;;;;;;;22.13;63.02;101742.75;7400735;19;20014;-63
2023/08/24 09:30:32;;;;;;;6.28;2.60;;;;;;;22.12;63.20;101733.81;7399939;19;20374;-63
2023/08/24 09:33:09;;;;;;;7.85;2.97;;;;;;;22.24;62.83;101728.13;7400185;19;20022;-64
2023/08/24 09:35:37;;;;;;;7.10;3.17;;;;;;;22.26;62.71;101720.72;7392644;19;20504;-63
2023/08/24 09:38:23;;;;;;;7.65;2.88;;;;;;;22.29;62.44;101713.16;7395495;19;20018;-64
2023/08/24 09:40:53;;;;;;;7.82;3.25;;;;;;;22.31;63.08;101723.75;7394876;19;20377;-62
2023/08/24 09:43:22;;;;;;;6.53;2.97;;;;;;;22.35;62.93;101715.16;7395486;19;20026;-63
2023/08/24 09:45:54;;;;;;;9.05;2.78;;;;;;;22.38;62.98;101701.34;7398139;19;20345;-63
2023/08/24 09:48:23;;;;;;;5.57;2.40;;;;;;;22.36;64.08;101702.50;7396394;19;20022;-63
2023/08/24 09:50:56;;;;;;;13.07;3.33;;;;;;;22.50;63.32;101699.16;7394528;19;20023;-64
2023/08/24 09:53:24;;;;;;;8.98;3.35;;;;;;;22.50;63.60;101688.34;7397563;19;20025;-63
2023/08/24 09:56:02;;;;;;;7.53;3.35;;;;;;;22.49;63.13;101683.13;7394645;19;20015;-63
2023/08/24 09:58:31;;;;;;;9.27;3.25;;;;;;;22.43;63.54;101678.38;7395559;19;20029;-64
2023/08/24 10:00:58;;;;;;;8.02;3.17;;;;;;;22.44;63.57;101677.41;7395573;19;20023;-64
2023/08/24 10:03:26;;;;;;;10.38;3.40;;;;;;;22.49;63.29;101670.47;7400698;19;20018;-64
2023/08/24 10:06:02;;;;;;;5.28;2.63;;;;;;;22.57;63.89;101669.63;7402674;19;20039;-64
2023/08/24 10:08:39;;;;;;;9.07;3.05;;;;;;;22.65;63.57;101671.47;7402425;19;20014;-64
2023/08/24 10:11:10;;;;;;;12.15;3.05;;;;;;;22.71;63.46;101668.13;7399646;19;20352;-64
2023/08/24 10:14:08;;;;;;;7.35;3.45;;;;;;;22.79;63.30;101660.84;7399088;19;20019;-64
2023/08/24 10:16:36;;;;;;;7.25;3.30;;;;;;;22.76;63.12;101657.63;7401993;19;20010;-64
2023/08/24 10:19:04;;;;;;;9.77;3.00;;;;;;;22.82;63.15;101655.09;7402050;19;20039;-64
2023/08/24 10:21:33;;;;;;;7.90;3.40;;;;;;;22.92;62.89;101654.09;7395283;19;20031;-64
2023/08/24 10:24:01;;;;;;;9.07;3.55;;;;;;;23.07;62.04;101655.91;7397442;19;20022;-64
2023/08/24 10:26:30;;;;;;;8.25;3.03;;;;;;;23.13;61.81;101659.78;7397643;19;20017;-64
2023/08/24 10:28:59;;;;;;;9.77;3.72;;;;;;;23.22;61.65;101639.81;7396484;19;20014;-63
2023/08/24 10:31:28;;;;;;;11.13;3.80;;;;;;;23.26;61.14;101634.91;7392808;19;20466;-63
2023/08/24 10:33:56;;;;;;;8.57;3.53;;;;;;;23.31;61.12;101627.09;7397622;19;20014;-64
2023/08/24 10:36:26;;;;;;;11.30;2.78;;;;;;;23.33;60.80;101625.06;7396768;19;20015;-64
2023/08/24 10:38:57;;;;;;;6.90;2.50;;;;;;;23.38;61.08;101622.69;7396421;19;20018;-64
2023/08/24 10:41:27;;;;;;;10.15;3.33;;;;;;;23.47;61.21;101616.25;7394714;19;20015;-64
2023/08/24 10:44:06;;;;;;;8.50;3.40;;;;;;;23.57;59.96;101614.13;7395556;19;20018;-64
2023/08/24 10:46:36;;;;;;;10.23;3.78;;;;;;;23.62;60.00;101610.06;7396524;19;20050;-64
2023/08/24 10:49:04;;;;;;;7.47;2.90;;;;;;;23.60;59.78;101602.97;7393752;19;20018;-64
2023/08/24 10:51:43;;;;;;;8.10;2.83;;;;;;;23.69;59.12;101592.97;7393865;19;20027;-64
2023/08/24 10:54:10;;;;;;;7.70;3.50;;;;;;;23.80;58.97;101606.09;7395141;19;20029;-63
2023/08/24 10:56:39;;;;;;;9.57;3.45;;;;;;;23.91;57.61;101610.25;7395362;19;20018;-63
2023/08/24 10:59:17;;;;;;;9.70;3.35;;;;;;;24.01;57.96;101604.59;7395810;19;20361;-63
2023/08/24 11:01:54;;;;;;;7.07;2.80;;;;;;;24.03;57.87;101605.25;7393571;19;20018;-63
2023/08/24 11:04:22;;;;;;;7.57;3.42;;;;;;;23.99;57.79;101595.81;7395237;19;20039;-63
2023/08/24 11:06:58;;;;;;;7.55;2.90;;;;;;;24.17;57.42;101592.81;7396528;19;20515;-65
2023/08/24 11:09:44;;;;;;;11.23;4.43;;;;;;;24.24;57.13;101596.47;7396112;19;20030;-65
2023/08/24 11:12:11;;;;;;;7.30;3.10;;;;;;;24.17;56.71;101590.94;7394003;19;20022;-65
2023/08/24 11:14:51;;;;;;;9.52;3.42;;;;;;;24.22;57.42;101580.41;7396254;19;20023;-66
2023/08/24 11:17:19;;;;;;;7.13;3.38;;;;;;;24.18;57.29;101567.41;7393703;19;20021;-66
2023/08/24 11:19:52;;;;;;;10.93;3.90;;;;;;;24.21;56.18;101561.63;7394896;19;20036;-66
2023/08/24 11:22:21;;;;;;;6.95;3.22;;;;;;;24.25;55.76;101554.84;7394153;19;20015;-66
2023/08/24 11:24:48;;;;;;;6.53;3.10;;;;;;;24.27;55.79;101555.50;7395008;19;20035;-67
2023/08/24 11:27:16;;;;;;;8.15;3.20;;;;;;;24.24;55.62;101545.88;7395522;19;20022;-67
2023/08/24 11:29:43;;;;;;;7.22;3.05;;;;;;;24.21;55.99;101553.53;7394370;19;20018;-66
2023/08/24 11:32:11;;;;;;;8.80;3.00;;;;;;;24.26;56.03;101551.09;7391667;19;20029;-65
2023/08/24 11:34:38;;;;;;;6.28;2.83;;;;;;;24.31;56.59;101537.88;7394950;19;20010;-65